TimeEDT,TemperatureF,Dew PointF,Humidity,Sea Level PressureIn,VisibilityMPH,Wind Direction,Wind SpeedMPH,Gust SpeedMPH,PrecipitationIn,Events,Conditions,WindDirDegrees,DateUTC
12:53 AM,52.0,33.1,49,29.97,10.0,North,6.9,-,N/A,,Clear,10,2014-03-23 04:53:00
1:53 AM,52.0,32.0,47,29.97,10.0,North,9.2,-,N/A,,Clear,10,2014-03-23 05:53:00
2:53 AM,50.0,30.0,46,29.97,10.0,North,9.2,-,N/A,,Clear,360,2014-03-23 06:53:00
3:53 AM,48.9,28.9,46,29.98,10.0,North,11.5,-,N/A,,Clear,360,2014-03-23 07:53:00
4:53 AM,46.9,28.0,48,30.00,10.0,NNE,8.1,-,N/A,,Clear,30,2014-03-23 08:53:00
5:53 AM,44.1,32.0,63,30.01,10.0,North,8.1,-,N/A,,Clear,10,2014-03-23 09:53:00
6:53 AM,44.1,28.0,53,30.04,10.0,North,9.2,-,N/A,,Clear,360,2014-03-23 10:53:00
7:53 AM,44.1,28.9,55,30.06,10.0,North,8.1,-,N/A,,Mostly Cloudy,360,2014-03-23 11:53:00
8:53 AM,46.9,28.0,48,30.08,10.0,North,13.8,-,N/A,,Overcast,10,2014-03-23 12:53:00
9:53 AM,46.0,28.0,50,30.09,10.0,NE,11.5,19.6,N/A,,Scattered Clouds,40,2014-03-23 13:53:00
10:53 AM,45.0,28.0,52,30.07,10.0,NE,10.4,18.4,N/A,,Scattered Clouds,50,2014-03-23 14:53:00
11:53 AM,44.1,28.0,53,30.06,10.0,NE,11.5,-,N/A,,Overcast,50,2014-03-23 15:53:00
12:53 PM,43.0,28.9,58,30.06,10.0,NE,9.2,-,N/A,,Mostly Cloudy,40,2014-03-23 16:53:00
1:53 PM,43.0,30.9,62,30.02,10.0,ENE,6.9,-,N/A,,Overcast,70,2014-03-23 17:53:00
2:53 PM,45.0,23.0,42,30.00,10.0,NNW,13.8,-,N/A,,Overcast,340,2014-03-23 18:53:00
3:53 PM,45.0,25.0,46,29.99,10.0,North,8.1,-,N/A,,Overcast,360,2014-03-23 19:53:00
4:53 PM,39.0,32.0,76,30.01,5.0,NNW,9.2,23.0,0.00,Rain,Light Rain,340,2014-03-23 20:53:00
5:15 PM,37.0,33.1,86,30.02,4.0,North,4.6,-,0.02,Rain,Light Rain,350,2014-03-23 21:15:00
5:36 PM,36.0,33.1,89,30.02,4.0,NW,5.8,-,0.02,Rain,Light Rain,320,2014-03-23 21:36:00
5:53 PM,36.0,33.1,89,30.03,5.0,NW,3.5,-,0.02,Rain,Light Rain,320,2014-03-23 21:53:00
6:01 PM,37.0,34.0,89,30.03,5.0,NW,3.5,-,0.00,,Overcast,320,2014-03-23 22:01:00
6:08 PM,37.0,34.0,89,30.03,4.0,Variable,4.6,-,0.00,Rain,Light Rain,0,2014-03-23 22:08:00
6:43 PM,37.0,34.0,89,30.03,5.0,Calm,Calm,-,0.00,,Overcast,0,2014-03-23 22:43:00
6:53 PM,37.0,34.0,89,30.03,5.0,Calm,Calm,-,0.00,Rain,Light Rain,0,2014-03-23 22:53:00
7:53 PM,36.0,33.1,89,30.04,6.0,NNW,4.6,-,0.00,,Overcast,330,2014-03-23 23:53:00
8:53 PM,36.0,34.0,93,30.05,5.0,Calm,Calm,-,N/A,,Clear,0,2014-03-24 00:53:00
9:53 PM,35.1,33.1,92,30.06,4.0,West,3.5,-,N/A,,Clear,280,2014-03-24 01:53:00
10:53 PM,34.0,32.0,92,30.08,5.0,West,4.6,-,N/A,,Mostly Cloudy,280,2014-03-24 02:53:00
11:53 PM,35.1,32.0,89,30.09,6.0,WNW,5.8,-,N/A,,Overcast,290,2014-03-24 03:53:00